Newport, TN (37821)

5:51 PM EDT on August 31, 2015 (GMT -0400)
Parrottsville TN | | Change Station
CLOSE
Current Station
Personal Weather Station
Location: Parrottsville, TN
Elevation: 1352 ft
Nearby Weather Stations

Elev 1352 ft 35.97 °N, 83.11 °W | Updated 10 minutes ago

Partly Cloudy
Partly Cloudy
85.5 °F
Feels Like 87 °F
N
0.0
Wind Variable Wind from West
Gusts 0.0 mph

Today
High -- | Low -- °F
--% Chance of Precip.
Yesterday
High -- | Low -- °F
Precip. -- in
7:03 AM 8:02 PM
Waning Gibbous, 93% visible
Pressure 30.05 in
Visibility 10.0 miles
Clouds Few 4500 ft
Mostly Cloudy 25000 ft
Heat Index 87 °F
Dew Point 65 °F
Humidity 51%
Rainfall 0.02 in
Snow Depth Not available.
UV 0.0 out of 12
Pollen 9.10 out of 12
Air Quality Not available.
Flu Activity Not available.
METAR KTYS 312053Z 07005KT 10SM FEW045 BKN250 30/16 A3008 RMK AO2 SLP174 T03000161 56017 $
Pressure 30.05 in
Visibility 10.0 miles
Clouds Few 4500 ft
Mostly Cloudy 25000 ft
Heat Index 87 °F
Dew Point 65 °F
Humidity 51%
Rainfall 0.02 in
Snow Depth Not available.
UV 0.0 out of 12
Pollen 9.10 out of 12
Air Quality Not available.
Flu Activity Not available.
METAR KTYS 312053Z 07005KT 10SM FEW045 BKN250 30/16 A3008 RMK AO2 SLP174 T03000161 56017 $

10-Day Weather Forecast

×

Almanac

Astronomy

Aug. 31, 2015 Rise Set
Actual Time
Civil Twilight
Nautical Twilight
Astronomical Twilight
Moon
Length of Visible Light
Length of Day
Tomorrow will be .
, % of the Moon is Illuminated

Today's Extremes

State Highs State Lows

Community

WunderPhotos

Upload Photos

1,851,377 photos uploaded!

WunderBlogs® & News

Nearby

Air Quality

  Air Quality AQ Index Pollutant
Not available.

Snow Depth

Station Depth Elevation

Earthquake Activity

City Distance Mag. Time & Date
Minimum magnitude displayed is 2.5.

Coastal Water Temperatures

Place Temperature

Stations

Nearby Weather Stations

Station Location Temp. Windchill Dew Point Humidity Wind Precip. Elev Updated Type